sim
Sign-in with your pilot id or email,
or register
Callsign
Passwort

Schedule Details

Flight Number: EWG4354 (2)
Departure: Salzburg Airport (LOWS) at 05:15
Arrival: Hamburg Airport (EDDH) at 06:40
Route: Eurowings Passenger Schedule. Enter filed route here before submitting Pirep.

Weather Information
Getting current METAR information for LOWS 241450Z 32010KT 9999 FEW045 02/M07 Q1001 NOSIG
Getting current METAR information for EDDH 241450Z 23004KT 200V260 9999 -RA FEW011 BKN014 03/01 Q0997 TEMPO 4500 -RASN

Schedule Frequency

Route Map